createdAt,value
2023-03-04T00:29:51.791Z,14.60
2023-03-04T00:39:55.339Z,14.30
2023-03-04T00:49:59.013Z,14.20
2023-03-04T01:00:07.589Z,13.50
2023-03-04T01:10:15.316Z,13.30
2023-03-04T01:20:19.277Z,12.80
2023-03-04T01:30:26.283Z,12.50
2023-03-04T01:40:31.601Z,12.10
2023-03-04T01:50:36.176Z,11.90
2023-03-04T02:00:41.894Z,11.20
2023-03-04T02:10:47.134Z,10.80
2023-03-04T02:21:19.251Z,10.10
2023-03-04T02:31:34.035Z,10.20
2023-03-04T02:41:38.905Z,10.10
2023-03-04T02:51:42.873Z,9.70
2023-03-04T03:01:50.337Z,9.60
2023-03-04T03:11:54.118Z,9.70
2023-03-04T03:21:58.293Z,9.30
2023-03-04T03:32:03.381Z,9.10
2023-03-04T03:42:07.160Z,9.40
2023-03-04T03:52:11.674Z,9.50
2023-03-04T04:02:18.154Z,9.30
2023-03-04T04:12:21.784Z,9.10
2023-03-04T04:22:27.131Z,9.20
2023-03-04T04:32:33.329Z,8.90
2023-03-04T04:42:37.283Z,8.80
2023-03-04T04:52:43.901Z,8.30
2023-03-04T05:03:25.558Z,8.50
2023-03-04T05:13:30.289Z,8.10
2023-03-04T05:23:39.265Z,7.80
2023-03-04T05:33:42.840Z,7.50
2023-03-04T05:43:46.418Z,7.30
2023-03-04T05:53:50.945Z,6.60
2023-03-04T06:03:56.315Z,5.90
2023-03-04T06:13:59.905Z,5.80
2023-03-04T06:24:03.534Z,6.00
2023-03-04T06:34:12.139Z,5.00
2023-03-04T06:44:15.779Z,4.40
2023-03-04T06:54:20.401Z,4.10
2023-03-04T07:04:26.454Z,4.60
2023-03-04T07:14:30.191Z,3.70
2023-03-04T07:24:33.709Z,3.80
2023-03-04T07:34:37.569Z,3.10
2023-03-04T07:44:44.196Z,2.70
2023-03-04T07:54:48.158Z,7.90
2023-03-04T08:04:51.784Z,2.40
2023-03-04T08:14:57.198Z,1.90
2023-03-04T08:25:00.827Z,1.80
2023-03-04T08:35:04.771Z,1.50
2023-03-04T08:45:12.343Z,4.50
2023-03-04T08:55:16.074Z,0.70
2023-03-04T09:05:19.776Z,0.80
2023-03-04T09:15:25.837Z,0.80
2023-03-04T09:25:29.566Z,0.90
2023-03-04T09:35:33.327Z,0.50
2023-03-04T09:45:50.236Z,0.70
2023-03-04T09:56:02.352Z,0.70
2023-03-04T10:06:10.582Z,0.70
2023-03-04T10:16:20.628Z,0.60
2023-03-04T10:26:31.249Z,0.60
2023-03-04T10:36:46.883Z,0.70
2023-03-04T10:46:57.897Z,0.80
2023-03-04T10:57:16.884Z,0.70
2023-03-04T11:07:28.038Z,0.50
2023-03-04T11:17:48.513Z,0.50
2023-03-04T11:28:01.182Z,0.50
2023-03-04T11:38:19.963Z,0.80
2023-03-04T11:48:47.015Z,0.50
2023-03-04T11:59:17.818Z,0.60
2023-03-04T12:10:05.601Z,0.60
2023-03-04T12:20:29.663Z,0.70
2023-03-04T12:31:18.952Z,0.70
2023-03-04T12:41:52.582Z,0.60
2023-03-04T12:52:19.754Z,0.70
2023-03-04T13:03:05.677Z,0.80
2023-03-04T13:13:38.103Z,0.70
2023-03-04T13:23:47.636Z,0.60
2023-03-04T13:33:58.960Z,0.70
2023-03-04T13:44:34.485Z,0.70
2023-03-04T13:54:38.275Z,0.90
2023-03-04T14:04:44.691Z,0.80
2023-03-04T14:14:52.690Z,0.80
2023-03-04T14:25:14.070Z,0.60
2023-03-04T14:35:29.687Z,0.60
2023-03-04T14:45:36.429Z,0.60
2023-03-04T14:55:40.235Z,0.70
2023-03-04T15:05:48.623Z,0.60
2023-03-04T15:16:01.524Z,0.60
2023-03-04T15:26:06.151Z,0.70
2023-03-04T15:36:15.216Z,0.70
2023-03-04T15:46:19.653Z,0.80
2023-03-04T15:56:25.771Z,0.90
2023-03-04T16:06:32.512Z,0.70
2023-03-04T16:16:36.207Z,0.90
2023-03-04T16:26:39.848Z,0.90
2023-03-04T16:36:45.337Z,5.70
2023-03-04T16:46:49.176Z,1.30
2023-03-04T16:56:52.851Z,1.50
2023-03-04T17:06:59.395Z,1.30
2023-03-04T17:17:07.611Z,1.60
2023-03-04T17:27:12.108Z,1.90
2023-03-04T17:37:16.284Z,1.30
2023-03-04T17:47:22.836Z,1.40
2023-03-04T17:57:26.430Z,1.40
2023-03-04T18:07:30.281Z,1.40
2023-03-04T18:17:33.879Z,1.50
2023-03-04T18:27:40.091Z,1.40
2023-03-04T18:37:45.590Z,1.40
2023-03-04T18:47:53.512Z,1.90
2023-03-04T18:58:06.616Z,1.60
2023-03-04T19:08:10.458Z,1.40
2023-03-04T19:18:14.115Z,1.50
2023-03-04T19:28:17.912Z,1.70
2023-03-04T19:38:22.711Z,1.20
2023-03-04T19:48:27.186Z,1.00
2023-03-04T19:58:31.361Z,0.80
2023-03-04T20:08:42.371Z,0.80
2023-03-04T20:18:46.175Z,1.30
2023-03-04T20:28:52.602Z,0.90
2023-03-04T20:39:04.216Z,0.70
2023-03-04T20:49:15.351Z,0.90
2023-03-04T20:59:21.350Z,0.80
2023-03-04T21:09:28.468Z,0.80
2023-03-04T21:19:38.399Z,1.70
2023-03-04T21:29:43.399Z,1.80
2023-03-04T21:39:47.254Z,2.10
2023-03-04T21:49:53.892Z,2.30
2023-03-04T21:59:57.480Z,2.70
2023-03-04T22:10:03.311Z,3.10
2023-03-04T22:20:10.041Z,3.10
2023-03-04T22:30:18.513Z,3.30
2023-03-04T22:40:22.162Z,7.50
2023-03-04T22:50:27.642Z,3.10
2023-03-04T23:00:34.331Z,2.70
2023-03-04T23:10:38.161Z,2.40
2023-03-04T23:20:43.592Z,2.90
2023-03-04T23:30:47.451Z,3.30
2023-03-04T23:40:56.318Z,2.80
2023-03-04T23:51:03.367Z,2.90
